Time;durP1;ratioP1;P1;durP2;ratioP2;P2;SDS_P1;SDS_P2;PMS_P1;PMS_P2;Temp;Humidity;BMP_temperature;BMP_pressure;BME280_temperature;BME280_humidity;BME280_pressure;Samples;Min_cycle;Max_cycle;Signal;HPM_P1;HPM_P2
2022/05/06 00:01:04;;;;;;;28.90;12.38;;;;;;;;;;5050490;28;20059;-81
2022/05/06 00:03:30;;;;;;;22.92;10.65;;;;;;;;;;5050254;28;20618;-81
2022/05/06 00:05:56;;;;;;;20.85;9.40;;;;;;;;;;5050383;28;20483;-81
2022/05/06 00:08:22;;;;;;;24.70;10.88;;;;;;;;;;5067227;28;20040;-81
2022/05/06 00:10:48;;;;;;;27.30;12.25;;;;;;;;;;5050296;28;20044;-81
2022/05/06 00:13:14;;;;;;;23.98;11.48;;;;;;;;;;5050763;28;20051;-81
2022/05/06 00:15:40;;;;;;;24.30;11.13;;;;;;;;;;5050457;28;20040;-82
2022/05/06 00:18:06;;;;;;;24.13;10.40;;;;;;;;;;5050189;28;20041;-81
2022/05/06 00:20:32;;;;;;;25.20;9.38;;;;;;;;;;5050154;28;20048;-82
2022/05/06 00:23:00;;;;;;;20.65;9.95;;;;;;;;;;5050422;28;20047;-82
2022/05/06 00:25:26;;;;;;;29.42;11.30;;;;;;;;;;5050486;28;20066;-82
2022/05/06 00:27:52;;;;;;;21.58;10.43;;;;;;;;;;5050068;28;20048;-81
2022/05/06 00:30:18;;;;;;;19.65;9.07;;;;;;;;;;5049912;28;20149;-81
2022/05/06 00:32:44;;;;;;;22.83;10.35;;;;;;;;;;5050231;28;20456;-81
2022/05/06 00:35:10;;;;;;;21.80;9.85;;;;;;;;;;5049569;28;20132;-81
2022/05/06 00:37:36;;;;;;;24.13;10.30;;;;;;;;;;5049930;28;20504;-82
2022/05/06 00:40:03;;;;;;;24.02;10.18;;;;;;;;;;5049689;28;20048;-82
2022/05/06 00:42:29;;;;;;;22.27;9.55;;;;;;;;;;5050025;28;20540;-82
2022/05/06 00:44:55;;;;;;;20.38;8.80;;;;;;;;;;5050316;28;20048;-82
2022/05/06 00:47:22;;;;;;;26.52;11.05;;;;;;;;;;5050337;28;20516;-82
2022/05/06 00:49:49;;;;;;;24.50;9.98;;;;;;;;;;5052733;28;20044;-82
2022/05/06 00:52:17;;;;;;;20.80;8.98;;;;;;;;;;5053392;28;20040;-81
2022/05/06 00:54:43;;;;;;;26.98;11.15;;;;;;;;;;5053357;28;20511;-81
2022/05/06 00:57:10;;;;;;;26.20;11.23;;;;;;;;;;5053399;28;20070;-81
2022/05/06 01:02:20;;;;;;;24.55;9.68;;;;;;;;;;5067159;28;20036;-81
2022/05/06 01:04:47;;;;;;;27.50;11.32;;;;;;;;;;5069723;28;20044;-81
2022/05/06 01:07:13;;;;;;;26.10;9.52;;;;;;;;;;5053058;28;20443;-81
2022/05/06 01:09:39;;;;;;;21.50;10.35;;;;;;;;;;5053138;28;20066;-81
2022/05/06 01:12:06;;;;;;;25.55;12.55;;;;;;;;;;5052521;28;20078;-81
2022/05/06 01:14:33;;;;;;;28.17;12.35;;;;;;;;;;5052278;28;20044;-81
2022/05/06 01:16:59;;;;;;;29.15;11.95;;;;;;;;;;5052421;28;20472;-81
2022/05/06 01:19:25;;;;;;;31.40;11.43;;;;;;;;;;5052783;28;20047;-81
2022/05/06 01:21:54;;;;;;;29.50;13.20;;;;;;;;;;5053225;28;20037;-81
2022/05/06 01:24:21;;;;;;;24.98;11.40;;;;;;;;;;5053254;28;20036;-81
2022/05/06 01:26:56;;;;;;;25.38;11.35;;;;;;;;;;5070019;28;20209;-81
2022/05/06 01:29:23;;;;;;;29.65;11.00;;;;;;;;;;5053623;28;20091;-81
2022/05/06 01:31:52;;;;;;;22.98;10.93;;;;;;;;;;5053335;28;20514;-81
2022/05/06 01:34:18;;;;;;;21.67;9.57;;;;;;;;;;5053294;28;20433;-81
2022/05/06 01:36:46;;;;;;;22.45;10.32;;;;;;;;;;5053080;28;20043;-81
2022/05/06 01:39:15;;;;;;;26.17;11.20;;;;;;;;;;5052898;28;20139;-81
2022/05/06 01:41:44;;;;;;;25.55;10.60;;;;;;;;;;5053084;28;20369;-81
2022/05/06 01:44:10;;;;;;;27.65;10.43;;;;;;;;;;5069751;28;20041;-81
2022/05/06 01:46:36;;;;;;;26.35;11.35;;;;;;;;;;5073535;28;20090;-81
2022/05/06 01:49:03;;;;;;;26.27;11.68;;;;;;;;;;5056721;28;20048;-81
2022/05/06 01:51:30;;;;;;;26.08;11.13;;;;;;;;;;5057515;28;20066;-81
2022/05/06 01:53:56;;;;;;;22.25;10.80;;;;;;;;;;5056686;28;20488;-81
2022/05/06 01:56:22;;;;;;;23.15;11.05;;;;;;;;;;5056759;28;20044;-81
2022/05/06 01:58:49;;;;;;;29.98;12.07;;;;;;;;;;5056736;28;20086;-81
2022/05/06 02:01:15;;;;;;;25.08;11.68;;;;;;;;;;5056888;28;20040;-81
2022/05/06 02:06:26;;;;;;;27.60;12.23;;;;;;;;;;5073180;28;20048;-81
2022/05/06 02:08:52;;;;;;;22.00;10.40;;;;;;;;;;5056581;28;20064;-81
2022/05/06 02:11:18;;;;;;;30.88;13.27;;;;;;;;;;5073240;28;20041;-81
2022/05/06 02:13:45;;;;;;;29.10;12.40;;;;;;;;;;5073377;28;20048;-81
2022/05/06 02:16:11;;;;;;;33.83;12.40;;;;;;;;;;5056457;28;20032;-81
2022/05/06 02:18:37;;;;;;;20.88;10.57;;;;;;;;;;5056200;28;20041;-81
2022/05/06 02:21:03;;;;;;;21.63;10.65;;;;;;;;;;5073073;28;20081;-81
2022/05/06 02:23:29;;;;;;;24.13;10.90;;;;;;;;;;5056340;28;20474;-81
2022/05/06 02:25:55;;;;;;;28.02;10.38;;;;;;;;;;5073009;28;20037;-81
2022/05/06 02:28:21;;;;;;;21.48;9.43;;;;;;;;;;5056462;28;20066;-81
2022/05/06 02:33:32;;;;;;;21.60;9.70;;;;;;;;;;5073081;28;20040;-81
2022/05/06 02:36:02;;;;;;;26.73;10.25;;;;;;;;;;5056177;28;20037;-81
2022/05/06 02:38:29;;;;;;;25.80;11.17;;;;;;;;;;5056204;28;20056;-81
2022/05/06 02:40:55;;;;;;;22.80;10.27;;;;;;;;;;5055919;28;20129;-81
2022/05/06 02:43:21;;;;;;;22.45;10.90;;;;;;;;;;5072966;28;20492;-81
2022/05/06 02:45:47;;;;;;;27.13;11.20;;;;;;;;;;5056088;28;20098;-81
2022/05/06 02:48:13;;;;;;;26.02;12.20;;;;;;;;;;5055820;28;20047;-81
2022/05/06 02:50:41;;;;;;;26.48;12.13;;;;;;;;;;5055892;28;20072;-81
2022/05/06 02:53:07;;;;;;;26.40;11.20;;;;;;;;;;5055810;28;20094;-81
2022/05/06 02:55:33;;;;;;;19.15;9.13;;;;;;;;;;5055886;28;20040;-81
2022/05/06 02:57:59;;;;;;;23.63;9.43;;;;;;;;;;5071622;28;20032;-81
2022/05/06 03:00:27;;;;;;;25.92;9.98;;;;;;;;;;5072547;28;20032;-82
2022/05/06 03:02:55;;;;;;;13.63;7.50;;;;;;;;;;5072434;28;20044;-81
2022/05/06 03:05:21;;;;;;;18.35;7.57;;;;;;;;;;5072528;28;20040;-82
2022/05/06 03:07:47;;;;;;;20.02;9.30;;;;;;;;;;5072260;28;20522;-82
2022/05/06 03:10:13;;;;;;;22.88;9.68;;;;;;;;;;5055491;28;20404;-82
2022/05/06 03:12:39;;;;;;;23.15;9.73;;;;;;;;;;5055465;28;20099;-82
2022/05/06 03:15:05;;;;;;;25.80;10.55;;;;;;;;;;5055153;28;20044;-82
2022/05/06 03:17:32;;;;;;;27.85;11.38;;;;;;;;;;5055507;28;20045;-81
2022/05/06 03:19:58;;;;;;;22.27;10.52;;;;;;;;;;5055516;28;20036;-82
2022/05/06 03:22:24;;;;;;;24.50;10.52;;;;;;;;;;5055181;28;20050;-81
2022/05/06 03:24:50;;;;;;;18.73;8.80;;;;;;;;;;5072111;28;20036;-81
2022/05/06 03:30:01;;;;;;;19.05;9.88;;;;;;;;;;5071919;28;20090;-81
2022/05/06 03:32:27;;;;;;;17.67;8.18;;;;;;;;;;5055067;28;20087;-81
2022/05/06 03:34:53;;;;;;;22.48;8.75;;;;;;;;;;5054873;28;20036;-82
2022/05/06 03:37:20;;;;;;;19.45;8.93;;;;;;;;;;5055228;28;20507;-82
2022/05/06 03:39:46;;;;;;;20.48;7.60;;;;;;;;;;5071289;28;20500;-81
2022/05/06 03:42:12;;;;;;;13.45;7.72;;;;;;;;;;5071541;28;20044;-82
2022/05/06 03:44:38;;;;;;;23.48;10.15;;;;;;;;;;5054661;28;20131;-81
2022/05/06 03:47:04;;;;;;;18.58;8.90;;;;;;;;;;5055090;28;20103;-82
2022/05/06 03:49:30;;;;;;;17.90;7.80;;;;;;;;;;5054729;28;20072;-82
2022/05/06 03:51:56;;;;;;;14.57;7.35;;;;;;;;;;5054558;28;20047;-82
2022/05/06 03:54:22;;;;;;;22.08;9.25;;;;;;;;;;5054851;28;20044;-82
2022/05/06 03:56:48;;;;;;;20.42;9.05;;;;;;;;;;5054477;28;20044;-82
2022/05/06 03:59:14;;;;;;;20.33;10.23;;;;;;;;;;5054740;28;20508;-82
2022/05/06 04:01:40;;;;;;;22.30;10.27;;;;;;;;;;5054392;28;20028;-81
2022/05/06 04:04:06;;;;;;;22.48;10.52;;;;;;;;;;5071035;28;20032;-81
2022/05/06 04:06:33;;;;;;;25.15;10.70;;;;;;;;;;5071008;28;20040;-82
2022/05/06 04:08:59;;;;;;;28.00;11.55;;;;;;;;;;5053545;28;20182;-82
2022/05/06 04:11:25;;;;;;;19.83;9.73;;;;;;;;;;5054319;28;20101;-81
2022/05/06 04:13:51;;;;;;;20.73;10.00;;;;;;;;;;5054742;28;20489;-81
2022/05/06 04:16:17;;;;;;;24.02;10.65;;;;;;;;;;5054217;28;20064;-81
2022/05/06 04:18:43;;;;;;;19.92;9.27;;;;;;;;;;5054418;28;20040;-81
2022/05/06 04:23:54;;;;;;;18.80;8.85;;;;;;;;;;5070973;28;20479;-81
2022/05/06 04:26:20;;;;;;;18.45;8.75;;;;;;;;;;5054098;28;20127;-81
2022/05/06 04:28:46;;;;;;;23.15;10.55;;;;;;;;;;5054198;28;20408;-81
2022/05/06 04:31:12;;;;;;;22.27;11.25;;;;;;;;;;5053920;28;20036;-81
2022/05/06 04:33:39;;;;;;;21.95;9.30;;;;;;;;;;5070618;28;20044;-81
2022/05/06 04:36:05;;;;;;;21.48;8.93;;;;;;;;;;5053922;28;20059;-81
2022/05/06 04:38:31;;;;;;;21.17;8.32;;;;;;;;;;5070323;28;20102;-82
2022/05/06 04:41:01;;;;;;;17.00;8.65;;;;;;;;;;5070419;28;20072;-82
2022/05/06 04:43:27;;;;;;;19.13;8.52;;;;;;;;;;5054149;28;20044;-81
2022/05/06 04:45:53;;;;;;;18.92;9.07;;;;;;;;;;5053671;28;20041;-81
2022/05/06 04:48:20;;;;;;;17.80;8.77;;;;;;;;;;5053872;28;20082;-81
2022/05/06 04:50:46;;;;;;;23.48;9.85;;;;;;;;;;5053602;28;20080;-81
2022/05/06 04:53:13;;;;;;;21.77;8.82;;;;;;;;;;5053746;28;20044;-81
2022/05/06 04:55:43;;;;;;;19.83;8.52;;;;;;;;;;5053502;28;20408;-82
2022/05/06 04:58:09;;;;;;;18.08;8.23;;;;;;;;;;5054013;28;20043;-81
2022/05/06 05:00:36;;;;;;;19.52;8.52;;;;;;;;;;5053517;28;20070;-81
2022/05/06 05:03:02;;;;;;;23.88;8.45;;;;;;;;;;5053569;28;20041;-81
2022/05/06 05:05:28;;;;;;;15.82;8.02;;;;;;;;;;5053605;28;20042;-81
2022/05/06 05:07:54;;;;;;;17.05;7.65;;;;;;;;;;5053541;28;20051;-81
2022/05/06 05:10:21;;;;;;;17.58;8.00;;;;;;;;;;5053499;28;20106;-81
2022/05/06 05:12:47;;;;;;;18.02;8.63;;;;;;;;;;5053475;28;20036;-81
2022/05/06 05:15:15;;;;;;;18.30;9.57;;;;;;;;;;5053752;28;20056;-82
2022/05/06 05:17:41;;;;;;;22.02;10.00;;;;;;;;;;5053347;28;20040;-81
2022/05/06 05:20:07;;;;;;;19.23;9.80;;;;;;;;;;5054659;28;20067;-81
2022/05/06 05:22:35;;;;;;;26.45;11.25;;;;;;;;;;5057723;28;20032;-80
2022/05/06 05:25:02;;;;;;;30.63;13.02;;;;;;;;;;5057389;28;20470;-79
2022/05/06 05:27:27;;;;;;;34.53;15.00;;;;;;;;;;5074214;28;20041;-79
2022/05/06 05:29:53;;;;;;;27.25;12.75;;;;;;;;;;5057259;28;20041;-79
2022/05/06 05:32:19;;;;;;;31.58;14.13;;;;;;;;;;5057153;28;20041;-80
2022/05/06 05:34:46;;;;;;;36.95;15.32;;;;;;;;;;5057264;28;20045;-80
2022/05/06 05:37:12;;;;;;;41.22;15.20;;;;;;;;;;5057278;28;20515;-80
2022/05/06 05:39:38;;;;;;;28.35;13.27;;;;;;;;;;5056865;28;20095;-80
2022/05/06 05:42:04;;;;;;;32.13;13.35;;;;;;;;;;5057313;28;20043;-80
2022/05/06 05:50:17;;;;;;;25.40;11.30;;;;;;;;;;5069236;28;20441;-79
2022/05/06 05:52:43;;;;;;;23.75;11.10;;;;;;;;;;5048502;28;20059;-80
2022/05/06 05:55:09;;;;;;;20.77;9.70;;;;;;;;;;5073684;28;20123;-80
2022/05/06 05:57:35;;;;;;;23.45;9.93;;;;;;;;;;5056597;28;20469;-79
2022/05/06 06:00:01;;;;;;;18.02;8.77;;;;;;;;;;5056564;28;20063;-79
2022/05/06 06:02:27;;;;;;;19.38;10.23;;;;;;;;;;5074239;28;20070;-78
2022/05/06 06:04:55;;;;;;;20.15;8.70;;;;;;;;;;5074551;28;20551;-79
2022/05/06 06:07:20;;;;;;;19.92;9.77;;;;;;;;;;5057753;28;20488;-79
2022/05/06 06:09:46;;;;;;;19.83;8.95;;;;;;;;;;5072561;28;20036;-80
2022/05/06 06:12:12;;;;;;;17.80;8.98;;;;;;;;;;5056520;28;20048;-79
2022/05/06 06:14:38;;;;;;;17.88;7.47;;;;;;;;;;5056391;28;20037;-79
2022/05/06 06:17:04;;;;;;;19.23;8.98;;;;;;;;;;5056273;28;20114;-77
2022/05/06 06:19:30;;;;;;;15.75;7.53;;;;;;;;;;5073246;28;20044;-78
2022/05/06 06:21:56;;;;;;;17.02;8.43;;;;;;;;;;5071142;28;20126;-77
2022/05/06 06:24:22;;;;;;;15.23;8.15;;;;;;;;;;5052624;28;20123;-78
2022/05/06 06:26:48;;;;;;;18.77;9.10;;;;;;;;;;5052126;28;20043;-78
2022/05/06 06:29:14;;;;;;;15.23;7.18;;;;;;;;;;5069184;28;20044;-78
2022/05/06 06:31:40;;;;;;;16.80;8.85;;;;;;;;;;5068012;28;20048;-78
2022/05/06 06:34:06;;;;;;;14.50;7.70;;;;;;;;;;5069010;28;20474;-79
2022/05/06 06:36:32;;;;;;;13.80;8.18;;;;;;;;;;5052421;28;20044;-78
2022/05/06 06:38:58;;;;;;;15.27;7.55;;;;;;;;;;5068737;28;20606;-78
2022/05/06 06:41:25;;;;;;;17.23;9.13;;;;;;;;;;5052156;28;20045;-81
2022/05/06 06:43:51;;;;;;;17.88;14.43;;;;;;;;;;5068661;28;20471;-79
2022/05/06 06:46:17;;;;;;;15.68;13.98;;;;;;;;;;5052635;28;20044;-77
2022/05/06 06:48:44;;;;;;;15.90;13.90;;;;;;;;;;5052288;28;20495;-79
2022/05/06 06:51:10;;;;;;;18.73;15.63;;;;;;;;;;5068327;28;20097;-78
2022/05/06 06:53:36;;;;;;;16.40;14.20;;;;;;;;;;5052209;28;20139;-78
2022/05/06 06:56:02;;;;;;;19.30;15.02;;;;;;;;;;5051941;28;20159;-78
2022/05/06 06:58:28;;;;;;;18.58;15.90;;;;;;;;;;5052090;28;20044;-78
2022/05/06 07:00:54;;;;;;;19.35;14.88;;;;;;;;;;5068617;28;20044;-78
2022/05/06 07:03:20;;;;;;;19.42;15.50;;;;;;;;;;5068245;28;20138;-79
2022/05/06 07:14:01;;;;;;;20.38;17.38;;;;;;;;;;5068286;28;20044;-79
2022/05/06 07:16:27;;;;;;;18.50;16.48;;;;;;;;;;5067854;28;20051;-80
2022/05/06 07:18:53;;;;;;;19.10;16.17;;;;;;;;;;5051890;28;20056;-78
2022/05/06 07:21:19;;;;;;;22.25;17.08;;;;;;;;;;5068102;28;20040;-78
2022/05/06 07:23:45;;;;;;;18.70;15.85;;;;;;;;;;5068027;28;20046;-79
2022/05/06 07:26:12;;;;;;;18.00;15.27;;;;;;;;;;5068110;28;20397;-78
2022/05/06 07:28:38;;;;;;;19.33;17.08;;;;;;;;;;5051112;28;20053;-82
2022/05/06 07:31:04;;;;;;;18.23;15.18;;;;;;;;;;5067930;28;20041;-79
2022/05/06 07:33:30;;;;;;;23.85;20.17;;;;;;;;;;5051538;28;20385;-82
2022/05/06 07:35:56;;;;;;;21.17;18.00;;;;;;;;;;5051304;28;20090;-80
2022/05/06 07:38:22;;;;;;;20.05;15.98;;;;;;;;;;5067723;28;20084;-83
2022/05/06 07:40:48;;;;;;;19.55;16.85;;;;;;;;;;5050747;28;20048;-82
2022/05/06 07:43:15;;;;;;;19.42;15.23;;;;;;;;;;5067642;28;20098;-79
2022/05/06 07:45:42;;;;;;;17.85;15.20;;;;;;;;;;5067585;28;20063;-77
2022/05/06 07:48:10;;;;;;;19.27;16.60;;;;;;;;;;5067619;28;20056;-78
2022/05/06 07:50:37;;;;;;;16.85;15.05;;;;;;;;;;5050744;28;20044;-79
2022/05/06 07:53:03;;;;;;;18.30;14.85;;;;;;;;;;5050929;28;20048;-78
2022/05/06 07:55:30;;;;;;;19.70;16.60;;;;;;;;;;5067397;28;20048;-79
2022/05/06 07:57:57;;;;;;;22.00;18.92;;;;;;;;;;5067659;28;20044;-86
2022/05/06 08:00:24;;;;;;;21.40;17.75;;;;;;;;;;5050683;28;20109;-80
2022/05/06 08:05:34;;;;;;;19.83;16.20;;;;;;;;;;5070912;28;20044;-80
2022/05/06 08:08:00;;;;;;;23.33;18.50;;;;;;;;;;5055501;28;20058;-80
2022/05/06 08:10:26;;;;;;;22.85;18.27;;;;;;;;;;5071638;28;20067;-79
2022/05/06 08:12:52;;;;;;;25.17;18.02;;;;;;;;;;5071869;28;20468;-80
2022/05/06 08:15:19;;;;;;;21.77;16.73;;;;;;;;;;5070731;28;20040;-78
2022/05/06 08:17:45;;;;;;;24.00;18.77;;;;;;;;;;5070680;28;20040;-80
2022/05/06 08:20:12;;;;;;;23.00;18.05;;;;;;;;;;5070681;28;20059;-79
2022/05/06 08:22:38;;;;;;;24.80;19.08;;;;;;;;;;5054517;28;20044;-85
2022/05/06 08:25:05;;;;;;;19.23;15.82;;;;;;;;;;5070612;28;20063;-79
2022/05/06 08:27:42;;;;;;;19.92;15.95;;;;;;;;;;5070750;28;20075;-79
2022/05/06 08:30:09;;;;;;;18.95;14.77;;;;;;;;;;5070527;28;20063;-76
2022/05/06 08:32:35;;;;;;;19.38;15.82;;;;;;;;;;5070516;28;20127;-78
2022/05/06 08:35:01;;;;;;;23.35;17.50;;;;;;;;;;5053686;28;20040;-80
2022/05/06 08:37:27;;;;;;;18.23;15.38;;;;;;;;;;5070342;28;20097;-78
2022/05/06 08:39:53;;;;;;;21.92;16.50;;;;;;;;;;5070163;28;20049;-79
2022/05/06 08:42:20;;;;;;;17.85;13.93;;;;;;;;;;5070455;28;20113;-76
2022/05/06 08:53:08;;;;;;;16.27;12.57;;;;;;;;;;5070279;28;20049;-78
2022/05/06 08:55:34;;;;;;;15.90;12.90;;;;;;;;;;5052854;28;20041;-78
2022/05/06 08:58:00;;;;;;;21.10;15.95;;;;;;;;;;5070177;28;20079;-80
2022/05/06 09:00:26;;;;;;;18.63;15.20;;;;;;;;;;5070491;28;20449;-86
2022/05/06 09:02:52;;;;;;;21.20;14.70;;;;;;;;;;5053392;28;20082;-79
2022/05/06 09:05:19;;;;;;;16.40;12.50;;;;;;;;;;5070412;28;20048;-81
2022/05/06 09:07:58;;;;;;;15.95;11.90;;;;;;;;;;5053785;28;20040;-76
2022/05/06 09:10:24;;;;;;;15.48;12.23;;;;;;;;;;5053250;28;20128;-78
2022/05/06 09:12:59;;;;;;;17.48;13.00;;;;;;;;;;5069887;28;20048;-79
2022/05/06 09:18:10;;;;;;;15.35;12.35;;;;;;;;;;5069981;28;20408;-79
2022/05/06 09:20:37;;;;;;;16.27;12.73;;;;;;;;;;5053551;28;20037;-79
2022/05/06 09:23:26;;;;;;;16.83;13.48;;;;;;;;;;5053311;28;20067;-82
2022/05/06 09:25:53;;;;;;;14.10;11.50;;;;;;;;;;5069866;28;20047;-78
2022/05/06 09:28:23;;;;;;;15.38;11.93;;;;;;;;;;5053187;28;20098;-80
2022/05/06 09:30:49;;;;;;;;;;;;;;;;;;5053725;28;20076;-82
2022/05/06 09:33:35;;;;;;;13.55;10.48;;;;;;;;;;5070389;28;19970;-78
2022/05/06 09:36:21;;;;;;;13.90;10.05;;;;;;;;;;5069784;28;20394;-78
2022/05/06 09:39:14;;;;;;;9.32;6.28;;;;;;;;;;5053259;28;20511;-78
2022/05/06 09:41:41;;;;;;;11.82;9.02;;;;;;;;;;5068156;28;20122;-78
2022/05/06 09:44:08;;;;;;;10.35;7.70;;;;;;;;;;5069735;28;20446;-80
2022/05/06 09:46:34;;;;;;;8.80;7.80;;;;;;;;;;5052944;28;20097;-78
2022/05/06 09:49:02;;;;;;;9.68;8.20;;;;;;;;;;5052523;28;20472;-78
2022/05/06 09:51:29;;;;;;;10.43;8.27;;;;;;;;;;5052859;28;20412;-79
2022/05/06 09:53:58;;;;;;;8.05;6.57;;;;;;;;;;5052884;28;20037;-81
2022/05/06 09:56:24;;;;;;;5.88;5.05;;;;;;;;;;5069620;28;20108;-84
2022/05/06 09:58:54;;;;;;;5.30;4.57;;;;;;;;;;5053162;28;20119;-82
2022/05/06 10:01:20;;;;;;;4.88;2.92;;;;;;;;;;5053179;28;20094;-81
2022/05/06 10:03:46;;;;;;;4.60;3.45;;;;;;;;;;5069513;28;20041;-77
2022/05/06 10:06:12;;;;;;;5.75;5.18;;;;;;;;;;5070961;28;20490;-77
2022/05/06 10:08:43;;;;;;;3.55;3.13;;;;;;;;;;5056813;28;20136;-78
2022/05/06 10:11:12;;;;;;;4.72;4.30;;;;;;;;;;5056428;28;20448;-77
2022/05/06 10:13:43;;;;;;;5.97;4.72;;;;;;;;;;5073399;28;20052;-78
2022/05/06 10:16:09;;;;;;;2.55;1.65;;;;;;;;;;5056511;28;20105;-76
2022/05/06 10:18:36;;;;;;;3.40;3.10;;;;;;;;;;5056252;28;20488;-78
2022/05/06 10:21:02;;;;;;;2.72;2.10;;;;;;;;;;5056453;28;20040;-83
2022/05/06 10:23:45;;;;;;;3.20;2.90;;;;;;;;;;5073029;28;20036;-77
2022/05/06 10:26:30;;;;;;;3.30;2.20;;;;;;;;;;5072650;28;20092;-76
2022/05/06 10:34:27;;;;;;;4.35;2.63;;;;;;;;;;5071715;28;20041;-78
2022/05/06 10:36:54;;;;;;;3.05;2.40;;;;;;;;;;5054960;28;20051;-79
2022/05/06 10:39:20;;;;;;;2.58;2.33;;;;;;;;;;5055148;28;20076;-75
2022/05/06 10:41:59;;;;;;;2.70;2.08;;;;;;;;;;5071506;28;20068;-82
2022/05/06 10:44:36;;;;;;;2.78;2.50;;;;;;;;;;5053806;28;20036;-78
2022/05/06 10:47:22;;;;;;;3.70;3.40;;;;;;;;;;5052130;28;20076;-78
2022/05/06 10:49:52;;;;;;;4.20;2.17;;;;;;;;;;5051585;28;20119;-82
2022/05/06 10:52:32;;;;;;;2.88;2.45;;;;;;;;;;5052487;28;20048;-81
2022/05/06 10:55:03;;;;;;;4.03;3.20;;;;;;;;;;5052428;28;20546;-82
2022/05/06 10:57:29;;;;;;;;;;;;;;;;;;5052764;28;20041;-81
2022/05/06 11:00:02;;;;;;;3.08;2.78;;;;;;;;;;5068889;28;19920;-79
2022/05/06 11:02:28;;;;;;;3.60;3.30;;;;;;;;;;5051768;28;20496;-81
2022/05/06 11:05:02;;;;;;;2.38;2.17;;;;;;;;;;5052317;28;20123;-83
2022/05/06 11:07:29;;;;;;;3.30;2.38;;;;;;;;;;5051745;28;20113;-76
2022/05/06 11:09:56;;;;;;;3.75;2.60;;;;;;;;;;5052117;28;20055;-79
2022/05/06 11:12:28;;;;;;;4.68;4.28;;;;;;;;;;5051911;28;20575;-83
2022/05/06 11:14:58;;;;;;;4.57;4.18;;;;;;;;;;5068195;28;20044;-83
2022/05/06 11:17:27;;;;;;;4.33;2.37;;;;;;;;;;5051334;28;20488;-82
2022/05/06 11:19:53;;;;;;;3.88;3.28;;;;;;;;;;5052025;28;20059;-75
2022/05/06 11:22:20;;;;;;;5.63;2.35;;;;;;;;;;5051873;28;20427;-79
2022/05/06 11:24:46;;;;;;;3.90;3.22;;;;;;;;;;5051971;28;20071;-83
2022/05/06 11:27:12;;;;;;;3.25;2.95;;;;;;;;;;5051814;28;20047;-78
2022/05/06 11:29:48;;;;;;;4.18;2.38;;;;;;;;;;5051577;28;20479;-76
2022/05/06 11:32:14;;;;;;;3.78;3.40;;;;;;;;;;5051174;28;20071;-78
2022/05/06 11:34:46;;;;;;;2.10;1.90;;;;;;;;;;5051337;28;20044;-79
2022/05/06 11:37:20;;;;;;;3.67;3.17;;;;;;;;;;5050985;28;20080;-77
2022/05/06 11:39:46;;;;;;;5.10;2.70;;;;;;;;;;5051026;28;20156;-78
2022/05/06 11:42:19;;;;;;;4.53;2.22;;;;;;;;;;5067813;28;20408;-75
2022/05/06 11:47:39;;;;;;;3.70;1.85;;;;;;;;;;5067972;28;20052;-75
2022/05/06 11:50:05;;;;;;;3.45;2.13;;;;;;;;;;5050538;28;20040;-76
2022/05/06 11:52:32;;;;;;;2.40;1.90;;;;;;;;;;5067721;28;20554;-77
2022/05/06 11:54:59;;;;;;;3.42;2.20;;;;;;;;;;5050846;28;20040;-78
2022/05/06 11:57:25;;;;;;;3.08;1.63;;;;;;;;;;5051049;28;20067;-83
2022/05/06 11:59:51;;;;;;;2.80;2.50;;;;;;;;;;5051124;28;20471;-77
2022/05/06 12:02:17;;;;;;;2.97;1.92;;;;;;;;;;5051123;28;20131;-77
2022/05/06 12:04:43;;;;;;;4.65;3.28;;;;;;;;;;5050711;28;20446;-76
2022/05/06 12:07:09;;;;;;;3.08;2.78;;;;;;;;;;5067626;28;20044;-81
2022/05/06 12:09:43;;;;;;;4.75;2.03;;;;;;;;;;5051015;28;20094;-77
2022/05/06 12:12:10;;;;;;;2.78;1.85;;;;;;;;;;5053243;28;20480;-75
2022/05/06 12:14:36;;;;;;;3.60;2.28;;;;;;;;;;5054281;28;20456;-77
2022/05/06 12:17:10;;;;;;;3.65;2.05;;;;;;;;;;5054333;28;20043;-78
2022/05/06 12:19:40;;;;;;;3.25;2.20;;;;;;;;;;5054753;28;20051;-81
2022/05/06 12:22:06;;;;;;;;;;;;;;;;;;5071668;28;20094;-77
2022/05/06 12:24:45;;;;;;;2.28;1.67;;;;;;;;;;5054481;28;19916;-77
2022/05/06 12:27:11;;;;;;;3.95;1.67;;;;;;;;;;5053862;28;20044;-79
2022/05/06 12:29:42;;;;;;;1.98;1.30;;;;;;;;;;5069934;28;20040;-77
2022/05/06 12:32:08;;;;;;;2.10;1.15;;;;;;;;;;5054055;28;20106;-80
2022/05/06 12:34:34;;;;;;;2.72;2.00;;;;;;;;;;5070547;28;20055;-80
2022/05/06 12:37:13;;;;;;;3.83;1.48;;;;;;;;;;5070466;28;20403;-81
2022/05/06 12:39:41;;;;;;;2.33;1.58;;;;;;;;;;5070811;28;20057;-82
2022/05/06 12:42:12;;;;;;;2.20;1.40;;;;;;;;;;5070612;28;20048;-83
2022/05/06 12:44:38;;;;;;;1.63;1.10;;;;;;;;;;5070342;28;20076;-78
2022/05/06 12:47:13;;;;;;;1.65;1.50;;;;;;;;;;5053641;28;20400;-76
2022/05/06 12:49:39;;;;;;;2.15;1.70;;;;;;;;;;5070211;28;20041;-77
2022/05/06 12:52:06;;;;;;;2.35;1.90;;;;;;;;;;5053693;28;20055;-79
2022/05/06 12:54:35;;;;;;;1.73;1.33;;;;;;;;;;5070399;28;20048;-77
2022/05/06 12:57:03;;;;;;;1.42;1.27;;;;;;;;;;5070175;28;20044;-80
2022/05/06 12:59:29;;;;;;;1.80;1.45;;;;;;;;;;5070055;28;20129;-81
2022/05/06 13:01:55;;;;;;;3.45;1.60;;;;;;;;;;5070091;28;20439;-81
2022/05/06 13:04:21;;;;;;;2.13;1.92;;;;;;;;;;5070110;28;20056;-80
2022/05/06 13:06:47;;;;;;;1.40;1.30;;;;;;;;;;5069953;28;20040;-81
2022/05/06 13:09:14;;;;;;;3.47;1.80;;;;;;;;;;5053459;28;20446;-83
2022/05/06 13:11:40;;;;;;;2.15;1.42;;;;;;;;;;5070330;28;20507;-80
2022/05/06 13:14:07;;;;;;;2.80;2.30;;;;;;;;;;5070252;28;20048;-79
2022/05/06 13:16:34;;;;;;;2.40;1.73;;;;;;;;;;5053511;28;20040;-86
2022/05/06 13:19:01;;;;;;;4.43;2.58;;;;;;;;;;5036994;28;20048;-78
2022/05/06 13:21:27;;;;;;;3.83;2.15;;;;;;;;;;5069897;28;20032;-81
2022/05/06 13:23:52;;;;;;;4.13;3.10;;;;;;;;;;5070028;28;20041;-79
2022/05/06 13:26:18;;;;;;;2.97;2.20;;;;;;;;;;5053352;28;20549;-81
2022/05/06 13:28:44;;;;;;;3.35;2.33;;;;;;;;;;5053479;28;20424;-81
2022/05/06 13:31:11;;;;;;;2.20;2.00;;;;;;;;;;5054058;28;20597;-80
2022/05/06 13:33:38;;;;;;;5.97;2.35;;;;;;;;;;5053935;28;20528;-79
2022/05/06 13:36:04;;;;;;;3.17;2.45;;;;;;;;;;5053760;28;20051;-79
2022/05/06 13:38:30;;;;;;;2.72;2.53;;;;;;;;;;5069593;28;20128;-77
2022/05/06 13:40:59;;;;;;;4.03;2.25;;;;;;;;;;5054556;28;20106;-77
2022/05/06 13:43:25;;;;;;;5.50;2.25;;;;;;;;;;5057319;28;20044;-76
2022/05/06 13:45:51;;;;;;;3.65;2.30;;;;;;;;;;5057272;28;20044;-79
2022/05/06 13:48:17;;;;;;;3.63;2.85;;;;;;;;;;5056884;28;20459;-76
2022/05/06 13:50:43;;;;;;;3.25;2.55;;;;;;;;;;5074234;28;20080;-78
2022/05/06 13:53:09;;;;;;;2.15;1.83;;;;;;;;;;5056771;28;20040;-79
2022/05/06 14:01:05;;;;;;;2.95;2.10;;;;;;;;;;5073235;28;20045;-75
2022/05/06 14:03:32;;;;;;;2.15;1.80;;;;;;;;;;5056865;28;20044;-80
2022/05/06 14:05:58;;;;;;;2.55;2.33;;;;;;;;;;5056553;28;20036;-80
2022/05/06 14:08:24;;;;;;;1.90;1.67;;;;;;;;;;5073443;28;20496;-80
2022/05/06 14:10:50;;;;;;;2.90;2.55;;;;;;;;;;5056314;28;20047;-79
2022/05/06 14:13:16;;;;;;;3.83;2.55;;;;;;;;;;5052389;28;20447;-77
2022/05/06 14:15:42;;;;;;;3.45;2.33;;;;;;;;;;5052735;28;20040;-78
2022/05/06 14:18:08;;;;;;;4.03;3.53;;;;;;;;;;5052544;28;20131;-79
2022/05/06 14:20:34;;;;;;;4.50;2.80;;;;;;;;;;5052969;28;20086;-81
2022/05/06 14:23:00;;;;;;;5.20;2.78;;;;;;;;;;5052603;28;20405;-75
2022/05/06 14:25:26;;;;;;;3.60;3.30;;;;;;;;;;5052649;28;20040;-75
2022/05/06 14:27:52;;;;;;;2.92;2.35;;;;;;;;;;5052796;28;20032;-77
2022/05/06 14:30:18;;;;;;;3.92;3.00;;;;;;;;;;5052198;28;20041;-77
2022/05/06 14:32:46;;;;;;;3.60;2.50;;;;;;;;;;5052802;28;20456;-81
2022/05/06 14:35:21;;;;;;;4.88;2.88;;;;;;;;;;5069188;28;20440;-76
2022/05/06 14:37:49;;;;;;;4.68;2.38;;;;;;;;;;5069426;28;20052;-76
2022/05/06 14:40:17;;;;;;;4.05;2.28;;;;;;;;;;5051749;28;20060;-79
2022/05/06 14:42:43;;;;;;;3.60;3.30;;;;;;;;;;5069444;28;20500;-80
2022/05/06 14:45:09;;;;;;;2.70;2.30;;;;;;;;;;5052289;28;20040;-81
2022/05/06 14:47:35;;;;;;;3.38;2.55;;;;;;;;;;5052597;28;20453;-81
2022/05/06 14:50:01;;;;;;;3.30;3.00;;;;;;;;;;5068854;28;20135;-75
2022/05/06 14:52:27;;;;;;;2.95;2.20;;;;;;;;;;5051080;28;20044;-81
2022/05/06 14:54:53;;;;;;;5.47;3.20;;;;;;;;;;5052205;28;20044;-82
2022/05/06 14:57:23;;;;;;;4.15;2.10;;;;;;;;;;5052474;28;20071;-83
2022/05/06 14:59:49;;;;;;;4.30;2.00;;;;;;;;;;5052407;28;20513;-83
2022/05/06 15:02:15;;;;;;;2.53;1.80;;;;;;;;;;5052033;28;20507;-76
2022/05/06 15:04:41;;;;;;;3.58;3.13;;;;;;;;;;5068343;28;20050;-77
2022/05/06 15:07:07;;;;;;;2.38;1.92;;;;;;;;;;5051891;28;20080;-77
2022/05/06 15:09:33;;;;;;;4.10;2.88;;;;;;;;;;5051652;28;20150;-79
2022/05/06 15:11:59;;;;;;;5.13;2.05;;;;;;;;;;5051832;28;20049;-77
2022/05/06 15:14:31;;;;;;;4.10;3.67;;;;;;;;;;5051724;28;20922;-76
2022/05/06 15:17:02;;;;;;;4.05;3.03;;;;;;;;;;5051453;28;20519;-81
2022/05/06 15:19:28;;;;;;;4.22;3.47;;;;;;;;;;5068506;28;20492;-77
2022/05/06 15:21:54;;;;;;;3.13;2.35;;;;;;;;;;5051584;28;20041;-77
2022/05/06 15:24:24;;;;;;;4.57;2.63;;;;;;;;;;5068096;28;20074;-77
2022/05/06 15:26:50;;;;;;;8.15;2.65;;;;;;;;;;5051830;28;20052;-79